Ana Sayfa
METAR-TAF:

METAR-TAF

Havaalanları :

Kahramanmaraş Havalimanı

Kahramanmaraş, Türkiye

Enlem: 37-32-20N, Boylam: 036-57-12E, yükseklik: 525 m

Güncel hava durumu gözlemi

Rapor saat 00:50 UTC de 20 dakika önce yapıldı.
Rüzgar batı/kuzeybatıdan 10 kt
Sıcaklık 24°C
Nem 65%
Basınç 1010 hPa
Görüş mesafesi 10 km veya daha fazla
1500 m altında bulut yok ve kümülonimbus yok

METAR: LTCN 210050Z 29010KT CAVOK 24/17 Q1010 NOSIG

Saat: 04:10 (01:10 UTC)

Tahmin

Rapor saat 22:40 UTC de 2 saat ve 30 dakika önce yapıldı.
Ayın 21'si saat 00 UTC'den ayın 21'si saat 09 UTC'ye kadar geçerli Tahmin
Rüzgar batı/kuzeybatıdan 12 kt
Görüş mesafesi 10 km veya daha fazla
1500 m altında bulut yok ve kümülonimbus yok

TAF: LTCN 202240Z 2100/2109 29012KT CAVOK

4.000'den fazla havaalanı için hava durumu gözlemleri ve tahminleri (METAR ve TAF raporları).

Kullanılabilir istasyonlar harita üzerinde sarı ve kırmızı noktalarla gösterilir.

İstasyonun adını görmek için fareyi noktanın üzerinde gezdirin.

Sonrasında hava gözlem ve tahminlerini görmek için tıklayın.

Haritayı değiştirmek için: yaklaştırmak için siyah artı işaretli yeşil düğmeye ve uzaklaştırmak için de eksi işaretli düğmeye hızla tıklayın; bitişik haritalar için yeşil okları kullanın.


METAR-TAF: